Time;durP1;ratioP1;P1;durP2;ratioP2;P2;SDS_P1;SDS_P2;PMS_P1;PMS_P2;Temp;Humidity;BMP_temperature;BMP_pressure;BME280_temperature;BME280_humidity;BME280_pressure;Samples;Min_cycle;Max_cycle;Signal;HPM_P1;HPM_P2
2022/10/10 00:00:40;;;;;;;1999.90;999.90;;;10.80;99.90;;;;;;4974417;28;20467;-69
2022/10/10 00:03:07;;;;;;;1999.90;999.90;;;10.70;99.90;;;;;;4974048;28;20275;-69
2022/10/10 00:05:33;;;;;;;1999.90;999.90;;;10.70;99.90;;;;;;4978399;28;20775;-68
2022/10/10 00:07:59;;;;;;;1999.90;999.90;;;10.60;99.90;;;;;;4973956;28;20771;-69
2022/10/10 00:10:25;;;;;;;1999.90;999.90;;;10.60;99.90;;;;;;4974049;28;20405;-68
2022/10/10 00:12:51;;;;;;;1999.90;999.90;;;10.60;99.90;;;;;;4973818;28;20197;-67
2022/10/10 00:15:18;;;;;;;1999.90;999.90;;;10.60;99.90;;;;;;4974036;28;20436;-69
2022/10/10 00:17:43;;;;;;;1999.90;999.90;;;10.60;99.90;;;;;;4973751;28;20830;-68
2022/10/10 00:20:14;;;;;;;1999.90;999.90;;;10.60;99.90;;;;;;4973998;28;20448;-68
2022/10/10 00:22:40;;;;;;;1999.90;999.90;;;10.60;99.90;;;;;;4973879;28;20554;-68
2022/10/10 00:25:07;;;;;;;1999.90;999.90;;;10.50;99.90;;;;;;4973980;28;20593;-69
2022/10/10 00:27:33;;;;;;;1999.90;999.90;;;10.50;99.90;;;;;;4973695;28;20169;-68
2022/10/10 00:29:58;;;;;;;1999.90;999.90;;;10.40;99.90;;;;;;4973780;28;20411;-68
2022/10/10 00:32:24;;;;;;;1999.90;999.90;;;10.40;99.90;;;;;;4973981;28;20473;-68
2022/10/10 00:34:50;;;;;;;1999.90;999.90;;;10.40;99.90;;;;;;4974011;28;20171;-69
2022/10/10 00:37:16;;;;;;;1999.90;999.90;;;10.30;99.90;;;;;;4981226;28;20341;-69
2022/10/10 00:39:41;;;;;;;1999.90;999.90;;;10.30;99.90;;;;;;4978785;28;20218;-67
2022/10/10 00:42:11;;;;;;;1999.90;999.90;;;10.20;99.90;;;;;;4973586;28;20186;-69
2022/10/10 00:44:38;;;;;;;1999.90;999.90;;;10.20;99.90;;;;;;4982969;28;20646;-69
2022/10/10 00:47:04;;;;;;;1999.90;999.90;;;10.10;99.90;;;;;;4981447;28;20906;-68
2022/10/10 00:49:30;;;;;;;1999.90;999.90;;;10.00;99.90;;;;;;4973277;28;20413;-68
2022/10/10 00:51:58;;;;;;;1999.90;999.90;;;10.00;99.90;;;;;;4973345;28;20643;-69
2022/10/10 00:54:25;;;;;;;1999.90;999.90;;;10.00;99.90;;;;;;4973252;28;20423;-68
2022/10/10 00:57:12;;;;;;;1999.90;999.90;;;10.00;99.90;;;;;;4973098;28;20415;-68
2022/10/10 00:59:41;;;;;;;1999.90;999.90;;;9.90;99.90;;;;;;4973043;28;20464;-69
2022/10/10 01:02:08;;;;;;;1999.90;999.90;;;9.90;99.90;;;;;;4973129;28;20442;-69
2022/10/10 01:04:39;;;;;;;1999.90;999.90;;;9.90;99.90;;;;;;4973396;28;20410;-69
2022/10/10 01:07:20;;;;;;;1999.90;999.90;;;9.80;99.90;;;;;;4975524;28;20405;-68
2022/10/10 01:09:49;;;;;;;1999.90;999.90;;;9.70;99.90;;;;;;4974115;28;20408;-69
2022/10/10 01:12:33;;;;;;;1999.90;999.90;;;9.80;99.90;;;;;;4973701;28;20800;-69
2022/10/10 01:15:26;;;;;;;1999.90;999.90;;;9.80;99.90;;;;;;4973446;28;20424;-69
2022/10/10 01:17:57;;;;;;;1999.90;999.90;;;9.70;99.90;;;;;;4972212;28;20797;-69
2022/10/10 01:20:33;;;;;;;1999.90;999.90;;;9.70;99.90;;;;;;4971729;28;20466;-69
2022/10/10 01:23:30;;;;;;;1999.90;999.90;;;9.70;99.90;;;;;;4972854;28;20436;-69
2022/10/10 01:26:31;;;;;;;1999.90;999.90;;;9.70;99.90;;;;;;4972936;28;20474;-68
2022/10/10 01:29:15;;;;;;;1999.90;999.90;;;9.70;99.90;;;;;;4972832;28;20412;-69
2022/10/10 01:31:44;;;;;;;1999.90;999.90;;;9.70;99.90;;;;;;4975629;28;20487;-70
2022/10/10 01:34:12;;;;;;;1999.90;999.90;;;9.70;99.90;;;;;;4965363;28;20439;-69
2022/10/10 01:36:47;;;;;;;1999.90;999.90;;;9.70;99.90;;;;;;4959628;28;20433;-70
2022/10/10 01:39:19;;;;;;;1999.90;999.90;;;9.70;99.90;;;;;;4961268;28;20448;-70
2022/10/10 01:41:58;;;;;;;1999.90;999.90;;;9.70;99.90;;;;;;4963854;28;20413;-68
2022/10/10 01:44:24;;;;;;;1999.90;999.90;;;9.70;99.90;;;;;;4965749;28;20494;-69
2022/10/10 01:46:49;;;;;;;1999.90;999.90;;;9.70;99.90;;;;;;4956237;29;20448;-68
2022/10/10 01:49:15;;;;;;;1999.90;999.90;;;9.70;99.90;;;;;;4957090;28;20525;-67
2022/10/10 01:51:53;;;;;;;1999.90;999.90;;;9.70;99.90;;;;;;4957174;28;20634;-67
2022/10/10 01:54:40;;;;;;;1999.90;999.90;;;9.70;99.90;;;;;;4957147;28;20498;-68
2022/10/10 01:57:08;;;;;;;1999.90;999.90;;;9.70;99.90;;;;;;4956977;29;20412;-69
2022/10/10 01:59:45;;;;;;;1999.90;999.90;;;9.70;99.90;;;;;;4957056;28;20515;-69
2022/10/10 02:02:45;;;;;;;1999.90;999.90;;;9.80;99.90;;;;;;4957009;28;20433;-69
2022/10/10 02:05:16;;;;;;;1999.90;999.90;;;9.80;99.90;;;;;;4956819;28;20767;-68
2022/10/10 02:07:54;;;;;;;1999.90;999.90;;;9.70;99.90;;;;;;4956583;28;20412;-68
2022/10/10 02:10:25;;;;;;;1999.90;999.90;;;9.70;99.90;;;;;;4956891;28;20982;-68
2022/10/10 02:12:53;;;;;;;1999.90;999.90;;;9.70;99.90;;;;;;4956814;28;20445;-68
2022/10/10 02:15:21;;;;;;;1999.90;999.90;;;9.70;99.90;;;;;;4956895;28;20417;-70
2022/10/10 02:17:49;;;;;;;1999.90;999.90;;;9.70;99.90;;;;;;4956362;28;20472;-69
2022/10/10 02:20:19;;;;;;;1999.90;999.90;;;9.70;99.90;;;;;;4956532;28;20460;-69
2022/10/10 02:22:45;;;;;;;1999.90;999.90;;;9.60;99.90;;;;;;4956548;29;20521;-68
2022/10/10 02:25:12;;;;;;;1999.90;999.90;;;9.60;99.90;;;;;;4956558;29;20505;-68
2022/10/10 02:27:40;;;;;;;1999.90;999.90;;;9.60;99.90;;;;;;4956337;28;20409;-69
2022/10/10 02:30:06;;;;;;;1999.90;999.90;;;9.50;99.90;;;;;;4956613;28;20417;-69
2022/10/10 02:32:49;;;;;;;1999.90;999.90;;;9.60;99.90;;;;;;4956469;28;20475;-68
2022/10/10 02:35:23;;;;;;;1999.90;999.90;;;9.60;99.90;;;;;;4956564;28;20446;-68
2022/10/10 02:37:49;;;;;;;1999.90;999.90;;;9.60;99.90;;;;;;4956147;28;20452;-69
2022/10/10 02:40:20;;;;;;;1999.90;999.90;;;9.60;99.90;;;;;;4956223;28;20474;-69
2022/10/10 02:42:47;;;;;;;1999.90;999.90;;;9.70;99.90;;;;;;4956231;28;20447;-69
2022/10/10 02:45:13;;;;;;;1999.90;999.90;;;9.70;99.90;;;;;;4956249;28;20508;-68
2022/10/10 02:47:39;;;;;;;1999.90;999.90;;;9.80;99.90;;;;;;4955936;28;20424;-68
2022/10/10 02:50:05;;;;;;;1999.90;999.90;;;9.80;99.90;;;;;;4955259;28;20854;-68
2022/10/10 02:52:31;;;;;;;1999.90;999.90;;;9.90;99.90;;;;;;4955772;28;20805;-68
2022/10/10 02:54:56;;;;;;;1999.90;999.90;;;9.90;99.90;;;;;;4956044;28;20472;-68
2022/10/10 02:57:22;;;;;;;1999.90;999.90;;;10.00;99.90;;;;;;4955856;28;20212;-68
2022/10/10 02:59:47;;;;;;;1999.90;999.90;;;10.00;99.90;;;;;;4956655;28;20206;-69
2022/10/10 03:02:13;;;;;;;1999.90;999.90;;;10.00;99.90;;;;;;4957810;28;20503;-70
2022/10/10 03:04:39;;;;;;;1999.90;999.90;;;9.90;99.90;;;;;;4958770;28;20182;-68
2022/10/10 03:07:05;;;;;;;1999.90;999.90;;;10.00;99.90;;;;;;4955656;28;20185;-67
2022/10/10 03:09:30;;;;;;;1999.90;999.90;;;9.90;99.90;;;;;;4955673;28;20180;-69
2022/10/10 03:11:56;;;;;;;1999.90;999.90;;;9.80;99.90;;;;;;4955614;29;20421;-69
2022/10/10 03:14:22;;;;;;;1999.90;999.90;;;9.80;99.90;;;;;;4955707;28;20186;-68
2022/10/10 03:16:47;;;;;;;1999.90;999.90;;;9.80;99.90;;;;;;4955935;28;20185;-68
2022/10/10 03:19:13;;;;;;;1999.90;999.90;;;9.70;99.90;;;;;;4962578;28;20174;-70
2022/10/10 03:21:38;;;;;;;1999.90;999.90;;;9.70;99.90;;;;;;4958510;28;20176;-68
2022/10/10 03:24:04;;;;;;;1999.90;999.90;;;9.70;99.90;;;;;;4955404;28;20205;-68
2022/10/10 03:26:31;;;;;;;1999.90;999.90;;;9.60;99.90;;;;;;4955313;28;20637;-68
2022/10/10 03:28:56;;;;;;;1999.90;999.90;;;9.50;99.90;;;;;;4963462;28;20408;-69
2022/10/10 03:31:22;;;;;;;1999.90;999.90;;;9.40;99.90;;;;;;4963901;28;20465;-70
2022/10/10 03:33:48;;;;;;;1999.90;999.90;;;9.30;99.90;;;;;;4957906;28;20225;-68
2022/10/10 03:36:13;;;;;;;1999.90;999.90;;;9.30;99.90;;;;;;4959417;28;20183;-69
2022/10/10 03:38:39;;;;;;;1999.90;999.90;;;9.20;99.90;;;;;;4955592;29;20181;-68
2022/10/10 03:41:05;;;;;;;1999.90;999.90;;;9.20;99.90;;;;;;4962214;28;20248;-69
2022/10/10 03:43:31;;;;;;;1999.90;999.90;;;9.20;99.90;;;;;;4957490;29;20446;-68
2022/10/10 03:45:56;;;;;;;1999.90;999.90;;;9.10;99.90;;;;;;4955477;28;20236;-68
2022/10/10 03:48:22;;;;;;;1999.90;999.90;;;9.00;99.90;;;;;;4959878;28;20175;-70
2022/10/10 03:50:48;;;;;;;1999.90;999.90;;;9.00;99.90;;;;;;4960004;28;20583;-69
2022/10/10 03:53:13;;;;;;;1999.90;999.90;;;8.80;99.90;;;;;;4954936;28;20245;-68
2022/10/10 03:55:40;;;;;;;1999.90;999.90;;;8.80;99.90;;;;;;4954845;28;20261;-67
2022/10/10 03:58:06;;;;;;;1999.90;999.90;;;8.80;99.90;;;;;;4954682;28;20230;-67
2022/10/10 04:00:32;;;;;;;1999.90;999.90;;;8.80;99.90;;;;;;4954826;28;20858;-68
2022/10/10 04:02:58;;;;;;;1999.90;999.90;;;8.80;99.90;;;;;;4954317;28;20434;-69
2022/10/10 04:05:24;;;;;;;1999.90;999.90;;;8.80;99.90;;;;;;4954731;28;20174;-69
2022/10/10 04:07:49;;;;;;;1999.90;999.90;;;8.90;99.90;;;;;;4954444;28;20797;-69
2022/10/10 04:10:15;;;;;;;1999.90;999.90;;;8.90;99.90;;;;;;4954769;28;20436;-68
2022/10/10 04:12:41;;;;;;;1999.90;999.90;;;9.00;99.90;;;;;;4954809;28;20667;-69
2022/10/10 04:15:07;;;;;;;1999.90;999.90;;;9.00;99.90;;;;;;4955004;28;20183;-69
2022/10/10 04:17:32;;;;;;;1999.90;999.90;;;9.00;99.90;;;;;;4956122;28;20181;-69
2022/10/10 04:19:58;;;;;;;1999.90;999.90;;;9.10;99.90;;;;;;4960985;28;20457;-70
2022/10/10 04:22:24;;;;;;;1999.90;999.90;;;9.10;99.90;;;;;;4961228;28;20683;-69
2022/10/10 04:24:49;;;;;;;1999.90;999.90;;;9.10;99.90;;;;;;4960789;28;20232;-70
2022/10/10 04:27:15;;;;;;;1999.90;999.90;;;9.00;99.90;;;;;;4954840;28;20172;-68
2022/10/10 04:29:41;;;;;;;1999.90;999.90;;;9.00;99.90;;;;;;4954283;28;20175;-68
2022/10/10 04:32:06;;;;;;;1999.90;999.90;;;9.00;99.90;;;;;;4957177;28;20220;-69
2022/10/10 04:34:32;;;;;;;1999.90;999.90;;;9.10;99.90;;;;;;4957019;28;20182;-67
2022/10/10 04:36:57;;;;;;;1999.90;999.90;;;9.10;99.90;;;;;;4954095;28;20690;-67
2022/10/10 04:39:23;;;;;;;1999.90;999.90;;;9.10;99.90;;;;;;4954143;28;20203;-69
2022/10/10 04:41:49;;;;;;;1999.90;999.90;;;9.20;99.90;;;;;;4960481;28;20195;-70
2022/10/10 04:44:16;;;;;;;1999.90;999.90;;;9.10;99.90;;;;;;4960331;28;20172;-69
2022/10/10 04:46:41;;;;;;;1999.90;999.90;;;9.20;99.90;;;;;;4960952;28;20420;-69
2022/10/10 04:49:07;;;;;;;1999.90;999.90;;;9.20;99.90;;;;;;4962049;28;20898;-69
2022/10/10 04:51:32;;;;;;;1999.90;999.90;;;9.20;99.90;;;;;;4954611;28;20171;-68
2022/10/10 04:53:58;;;;;;;1999.90;999.90;;;9.20;99.90;;;;;;4953939;28;20194;-67
2022/10/10 04:56:25;;;;;;;1999.90;999.90;;;9.10;99.90;;;;;;4953941;28;20178;-68
2022/10/10 04:58:50;;;;;;;1999.90;999.90;;;9.10;99.90;;;;;;4954061;28;20166;-68
2022/10/10 05:01:16;;;;;;;1999.90;999.90;;;9.10;99.90;;;;;;4954042;28;20460;-68
2022/10/10 05:03:42;;;;;;;1999.90;999.90;;;8.90;99.90;;;;;;4954162;28;20284;-69
2022/10/10 05:06:07;;;;;;;1999.90;999.90;;;8.80;99.90;;;;;;4953846;28;20592;-67
2022/10/10 05:08:33;;;;;;;1999.90;999.90;;;8.90;99.90;;;;;;4956802;28;20174;-69
2022/10/10 05:10:59;;;;;;;1999.90;999.90;;;8.90;99.90;;;;;;4962031;28;20181;-70
2022/10/10 05:13:24;;;;;;;1999.90;999.90;;;8.90;99.90;;;;;;4955995;28;20191;-69
2022/10/10 05:15:51;;;;;;;1999.90;999.90;;;8.90;99.90;;;;;;4957877;28;20185;-68
2022/10/10 05:18:17;;;;;;;1999.90;999.90;;;8.90;99.90;;;;;;4957715;28;20172;-68
2022/10/10 05:20:46;;;;;;;1999.90;999.90;;;8.90;99.90;;;;;;4957802;28;20458;-69
2022/10/10 05:23:13;;;;;;;1999.90;999.90;;;8.90;99.90;;;;;;4957847;28;20428;-69
2022/10/10 05:25:38;;;;;;;1999.90;999.90;;;8.90;99.90;;;;;;4957679;28;20443;-67
2022/10/10 05:28:04;;;;;;;1999.90;999.90;;;9.00;99.90;;;;;;4957372;28;20442;-68
2022/10/10 05:30:29;;;;;;;1999.90;999.90;;;9.00;99.90;;;;;;4957586;28;20175;-68
2022/10/10 05:32:55;;;;;;;1999.90;999.90;;;8.90;99.90;;;;;;4957360;28;20254;-68
2022/10/10 05:35:21;;;;;;;1999.90;999.90;;;9.00;99.90;;;;;;4957590;28;20260;-69
2022/10/10 05:37:46;;;;;;;1999.90;999.90;;;9.00;99.90;;;;;;4957221;28;20175;-69
2022/10/10 05:40:12;;;;;;;1999.90;999.90;;;9.00;99.90;;;;;;4964208;28;20678;-69
2022/10/10 05:42:38;;;;;;;1999.90;999.90;;;9.00;99.90;;;;;;4962977;28;20187;-68
2022/10/10 05:45:04;;;;;;;1999.90;999.90;;;9.00;99.90;;;;;;4958900;28;20196;-70
2022/10/10 05:47:29;;;;;;;1999.90;999.90;;;9.00;99.90;;;;;;4965094;28;20176;-70
2022/10/10 05:49:55;;;;;;;1999.90;999.90;;;8.90;99.90;;;;;;4962745;28;20432;-68
2022/10/10 05:52:21;;;;;;;1999.90;999.90;;;8.90;99.90;;;;;;4956973;28;20661;-68
2022/10/10 05:54:46;;;;;;;1999.90;999.90;;;9.00;99.90;;;;;;4957006;28;20172;-69
2022/10/10 05:57:12;;;;;;;1999.90;999.90;;;9.00;99.90;;;;;;4957069;28;20182;-69
2022/10/10 05:59:37;;;;;;;1999.90;999.90;;;8.90;99.90;;;;;;4956863;28;20202;-68
2022/10/10 06:02:03;;;;;;;1999.90;999.90;;;8.90;99.90;;;;;;4956984;28;20594;-68
2022/10/10 06:04:29;;;;;;;1999.90;999.90;;;8.80;99.90;;;;;;4956980;28;20172;-69
2022/10/10 06:06:54;;;;;;;1999.90;999.90;;;8.70;99.90;;;;;;4956759;28;20515;-69
2022/10/10 06:09:20;;;;;;;1999.90;999.90;;;8.60;99.90;;;;;;4956811;28;20164;-68
2022/10/10 06:11:45;;;;;;;1999.90;999.90;;;8.60;99.90;;;;;;4956801;28;20171;-69
2022/10/10 06:14:11;;;;;;;1999.90;999.90;;;8.60;99.90;;;;;;4956813;28;20172;-68
2022/10/10 06:16:38;;;;;;;1999.90;999.90;;;8.70;99.90;;;;;;4956442;28;20713;-69
2022/10/10 06:19:04;;;;;;;1999.90;999.90;;;8.60;99.90;;;;;;4956822;28;20163;-68
2022/10/10 06:21:29;;;;;;;1999.90;999.90;;;8.70;99.90;;;;;;4956522;28;20455;-68
2022/10/10 06:23:55;;;;;;;1999.90;999.90;;;8.80;99.90;;;;;;4956574;28;20208;-69
2022/10/10 06:26:20;;;;;;;1999.90;999.90;;;9.00;99.90;;;;;;4956193;28;20176;-67
2022/10/10 06:28:46;;;;;;;1999.90;999.90;;;9.00;99.90;;;;;;4956332;28;20734;-68
2022/10/10 06:31:13;;;;;;;1999.90;999.90;;;9.00;99.90;;;;;;4956497;28;20174;-67
2022/10/10 06:33:42;;;;;;;1999.90;999.90;;;9.20;99.90;;;;;;4956261;28;20215;-68
2022/10/10 06:36:07;;;;;;;1999.90;999.90;;;9.30;99.90;;;;;;4956261;28;20414;-68
2022/10/10 06:38:41;;;;;;;1999.90;999.90;;;9.40;99.90;;;;;;4956275;28;20415;-68
2022/10/10 06:41:07;;;;;;;1999.90;999.90;;;9.50;99.90;;;;;;4956369;28;20256;-69
2022/10/10 06:43:33;;;;;;;1999.90;999.90;;;9.70;99.90;;;;;;4956374;28;20421;-68
2022/10/10 06:45:59;;;;;;;1999.90;999.90;;;9.70;99.90;;;;;;4956524;28;20406;-68
2022/10/10 06:48:25;;;;;;;1999.90;999.90;;;9.80;99.90;;;;;;4956102;28;20178;-70
2022/10/10 06:51:15;;;;;;;1999.90;999.90;;;9.90;99.90;;;;;;4963506;28;20660;-70
2022/10/10 06:53:41;;;;;;;1999.90;999.90;;;10.00;99.90;;;;;;4951209;28;20878;-69
2022/10/10 06:56:09;;;;;;;1999.90;999.90;;;10.10;99.90;;;;;;4956016;28;20537;-69
2022/10/10 06:58:35;;;;;;;1999.90;999.90;;;10.20;99.90;;;;;;4955925;28;20420;-69
2022/10/10 07:01:03;;;;;;;1999.90;999.90;;;10.30;99.90;;;;;;4955887;28;20457;-69
2022/10/10 07:03:30;;;;;;;1999.90;999.90;;;10.40;99.90;;;;;;4956055;28;20671;-68
2022/10/10 07:05:58;;;;;;;1999.90;999.90;;;10.50;99.90;;;;;;4955862;28;20445;-68
2022/10/10 07:08:25;;;;;;;1999.90;999.90;;;10.60;99.90;;;;;;4955684;28;20475;-68
2022/10/10 07:10:51;;;;;;;1999.90;999.90;;;10.60;99.90;;;;;;4955810;28;20412;-68
2022/10/10 07:13:16;;;;;;;1999.90;999.90;;;10.70;99.90;;;;;;4955669;28;20796;-69
2022/10/10 07:15:42;;;;;;;1999.90;999.90;;;10.70;99.90;;;;;;4955654;28;20429;-68
2022/10/10 07:18:09;;;;;;;1999.90;999.90;;;10.90;99.90;;;;;;4955498;28;20179;-69
2022/10/10 07:20:35;;;;;;;1999.90;999.90;;;11.00;99.90;;;;;;4955686;28;20562;-68
2022/10/10 07:23:00;;;;;;;1999.90;999.90;;;11.10;99.90;;;;;;4955814;28;20446;-68
2022/10/10 07:25:27;;;;;;;1999.90;999.90;;;11.20;99.90;;;;;;4958802;28;20461;-69
2022/10/10 07:27:52;;;;;;;1999.90;999.90;;;11.30;99.90;;;;;;4961700;28;20250;-69
2022/10/10 07:30:18;;;;;;;1999.90;999.90;;;11.40;99.90;;;;;;4955441;28;21185;-68
2022/10/10 07:32:44;;;;;;;1999.90;999.90;;;11.50;99.90;;;;;;4955189;28;20215;-69
2022/10/10 07:35:13;;;;;;;1999.90;999.90;;;11.50;99.90;;;;;;4955527;28;20788;-68
2022/10/10 07:37:39;;;;;;;1999.90;999.90;;;11.60;99.90;;;;;;4954292;28;20414;-69
2022/10/10 07:40:05;;;;;;;1999.90;999.90;;;11.60;99.90;;;;;;4955188;28;20448;-68
2022/10/10 07:42:31;;;;;;;1999.90;999.90;;;11.70;99.90;;;;;;4955073;28;20221;-69
2022/10/10 07:44:56;;;;;;;1999.90;999.90;;;11.70;99.90;;;;;;4955186;28;20442;-68
2022/10/10 07:47:22;;;;;;;1999.90;999.90;;;11.70;99.90;;;;;;4954992;28;20666;-68
2022/10/10 07:49:47;;;;;;;1999.90;999.90;;;11.70;99.90;;;;;;4955073;28;20182;-68
2022/10/10 07:52:13;;;;;;;1999.90;999.90;;;11.80;99.90;;;;;;4955129;28;20194;-68
2022/10/10 07:54:38;;;;;;;1999.90;999.90;;;11.80;99.90;;;;;;4955411;28;20178;-69
2022/10/10 07:57:04;;;;;;;1999.90;999.90;;;11.90;99.90;;;;;;4955313;28;20205;-69
2022/10/10 07:59:30;;;;;;;1999.90;999.90;;;11.90;99.90;;;;;;4955034;28;20203;-68
2022/10/10 08:01:55;;;;;;;1999.90;999.90;;;11.90;99.90;;;;;;4954984;28;20190;-69
2022/10/10 08:04:21;;;;;;;1999.90;999.90;;;12.00;99.90;;;;;;4954840;28;20179;-67
2022/10/10 08:06:47;;;;;;;1999.90;999.90;;;12.10;99.90;;;;;;4956357;28;20237;-70
2022/10/10 08:09:13;;;;;;;1999.90;999.90;;;12.10;99.90;;;;;;4960419;28;20171;-70
2022/10/10 08:11:38;;;;;;;1999.90;999.90;;;12.10;99.90;;;;;;4960531;28;20410;-70
2022/10/10 08:14:04;;;;;;;1999.90;999.90;;;12.20;99.90;;;;;;4961021;28;20180;-69
2022/10/10 08:16:30;;;;;;;1999.90;999.90;;;12.30;99.90;;;;;;4955464;28;20203;-69
2022/10/10 08:18:55;;;;;;;1999.90;999.90;;;12.40;99.90;;;;;;4954342;28;20218;-67
2022/10/10 08:21:21;;;;;;;1999.90;999.90;;;12.40;99.90;;;;;;4954572;28;20245;-67
2022/10/10 08:23:47;;;;;;;1999.90;999.90;;;12.50;99.90;;;;;;4954390;28;20674;-67
2022/10/10 08:26:14;;;;;;;1999.90;999.90;;;12.70;99.90;;;;;;4954359;28;20167;-68
2022/10/10 08:28:40;;;;;;;1999.90;999.90;;;12.80;99.90;;;;;;4954130;28;20431;-68
2022/10/10 08:31:15;;;;;;;1999.90;999.90;;;12.90;99.90;;;;;;4954322;28;20451;-67
2022/10/10 08:33:42;;;;;;;1999.90;999.90;;;13.10;99.90;;;;;;4955775;28;20880;-69
2022/10/10 08:36:11;;;;;;;1999.90;999.90;;;13.30;99.90;;;;;;4961559;28;20409;-69
2022/10/10 08:38:37;;;;;;;1999.90;999.90;;;13.40;99.90;;;;;;4955532;28;20416;-67
2022/10/10 08:41:29;;;;;;;1999.90;999.90;;;13.60;99.90;;;;;;4954001;28;20460;-68
2022/10/10 08:44:03;;;;;;;1999.90;999.90;;;13.70;99.90;;;;;;4943359;28;20440;-69
2022/10/10 08:46:51;;;;;;;1999.90;999.90;;;13.80;99.90;;;;;;4953985;28;20463;-69
2022/10/10 08:49:33;;;;;;;1999.90;999.90;;;13.90;99.90;;;;;;4954059;28;20955;-68
2022/10/10 08:52:39;;;;;;;1999.90;999.90;;;14.00;99.90;;;;;;4954579;28;20934;-68
2022/10/10 08:55:29;;;;;;;1999.90;999.90;;;14.10;99.90;;;;;;4954265;28;20404;-68
2022/10/10 08:58:18;;;;;;;1999.90;999.90;;;14.30;99.90;;;;;;4953849;28;20403;-69
2022/10/10 09:00:47;;;;;;;1999.90;999.90;;;14.50;99.90;;;;;;4953902;28;20457;-69
2022/10/10 09:03:35;;;;;;;1999.90;999.90;;;14.70;99.90;;;;;;4954057;28;20924;-68
2022/10/10 09:06:27;;;;;;;1999.90;999.90;;;14.90;99.90;;;;;;4953938;28;20449;-68
2022/10/10 09:09:14;;;;;;;1999.90;999.90;;;15.00;99.90;;;;;;4931135;28;20421;-69
2022/10/10 09:11:58;;;;;;;1999.90;999.90;;;15.20;99.90;;;;;;4953888;28;20410;-69
2022/10/10 09:14:26;;;;;;;1999.90;999.90;;;15.40;99.90;;;;;;4953808;29;20403;-69
2022/10/10 09:16:58;;;;;;;1999.90;999.90;;;15.50;99.90;;;;;;4953679;28;20443;-68
2022/10/10 09:19:47;;;;;;;1999.90;999.90;;;15.70;99.90;;;;;;4953961;28;20494;-69
2022/10/10 09:22:18;;;;;;;1999.90;999.90;;;15.80;99.90;;;;;;4953738;29;20804;-68
2022/10/10 09:24:47;;;;;;;1999.90;999.90;;;16.00;99.90;;;;;;4954207;28;20403;-69
2022/10/10 09:27:19;;;;;;;1999.90;999.90;;;16.20;99.90;;;;;;4953507;28;20403;-68
2022/10/10 09:29:52;;;;;;;1999.90;999.90;;;16.40;99.90;;;;;;4953679;28;20417;-68
2022/10/10 09:32:42;;;;;;;1999.90;999.90;;;16.60;99.90;;;;;;4953628;28;20448;-68
2022/10/10 09:35:13;;;;;;;1999.90;999.90;;;16.90;99.90;;;;;;4953624;28;20404;-69
2022/10/10 09:37:40;;;;;;;1999.90;999.90;;;17.10;99.90;;;;;;4953405;28;20443;-67
2022/10/10 09:40:36;;;;;;;1999.90;999.90;;;17.30;99.90;;;;;;4953530;28;20494;-68
2022/10/10 09:43:15;;;;;;;1999.90;999.90;;;17.60;99.90;;;;;;4953683;28;20425;-68
2022/10/10 09:45:57;;;;;;;1999.90;999.90;;;17.80;99.90;;;;;;4953706;28;20403;-68
2022/10/10 09:48:35;;;;;;;1999.90;999.90;;;18.00;99.90;;;;;;4953401;28;20544;-68
2022/10/10 09:51:04;;;;;;;1999.90;999.90;;;18.00;99.90;;;;;;4956920;28;20461;-70
2022/10/10 09:53:30;;;;;;;1999.90;999.90;;;17.90;99.90;;;;;;4960644;28;20436;-68
2022/10/10 09:55:58;;;;;;;1999.90;999.90;;;17.80;99.90;;;;;;4960338;28;20477;-69
2022/10/10 09:58:41;;;;;;;1999.90;999.90;;;17.80;99.90;;;;;;4958965;28;20241;-70
2022/10/10 10:01:28;;;;;;;1999.90;999.90;;;17.90;99.90;;;;;;4966197;28;20532;-70
2022/10/10 10:04:13;;;;;;;1999.90;999.90;;;18.00;99.90;;;;;;4969751;28;20497;-71
2022/10/10 10:06:48;;;;;;;1999.90;999.90;;;18.10;99.90;;;;;;4959040;28;20760;-71
2022/10/10 10:09:19;;;;;;;1999.90;999.90;;;18.20;99.90;;;;;;4956404;28;20868;-71
2022/10/10 10:11:48;;;;;;;1999.90;999.90;;;18.20;99.90;;;;;;4956040;28;20457;-68
2022/10/10 10:14:27;;;;;;;1999.90;999.90;;;18.20;99.90;;;;;;4956244;28;20908;-68
2022/10/10 10:16:55;;;;;;;1999.90;999.90;;;18.20;99.90;;;;;;4955454;28;20439;-68
2022/10/10 10:19:31;;;;;;;1999.90;999.90;;;18.40;99.90;;;;;;4955664;28;20394;-69
2022/10/10 10:21:56;;;;;;;1999.90;999.90;;;18.60;99.90;;;;;;4956099;28;20414;-69
2022/10/10 10:24:29;;;;;;;1999.90;999.90;;;18.80;99.90;;;;;;4956153;28;20416;-69
2022/10/10 10:26:57;;;;;;;1999.90;999.90;;;19.00;99.90;;;;;;4955161;28;20254;-69
2022/10/10 10:29:33;;;;;;;1999.90;999.90;;;19.20;99.90;;;;;;4960833;28;20770;-70
2022/10/10 10:32:34;;;;;;;1999.90;999.90;;;19.40;99.90;;;;;;4964377;28;20409;-70
2022/10/10 10:35:25;;;;;;;1999.90;999.90;;;19.40;99.90;;;;;;4965015;28;20507;-70
2022/10/10 10:38:21;;;;;;;1999.90;999.90;;;19.50;99.90;;;;;;4979402;28;20424;-70
2022/10/10 10:41:13;;;;;;;1999.90;999.90;;;19.60;99.90;;;;;;4986672;28;20463;-70
2022/10/10 10:43:55;;;;;;;1999.90;999.90;;;19.60;99.90;;;;;;4985937;28;20432;-71
2022/10/10 10:46:42;;;;;;;1999.90;999.90;;;19.70;99.90;;;;;;4985310;28;20428;-72
2022/10/10 10:49:17;;;;;;;1999.90;999.90;;;20.00;99.90;;;;;;4974523;28;20415;-68
2022/10/10 10:52:27;;;;;;;1999.90;999.90;;;20.20;99.90;;;;;;4975125;28;20455;-68
2022/10/10 10:55:31;;;;;;;1999.90;999.90;;;20.50;99.90;;;;;;4959433;28;20416;-69
2022/10/10 10:58:29;;;;;;;1999.90;999.90;;;20.70;99.90;;;;;;4974009;28;20468;-69
2022/10/10 11:01:04;;;;;;;1999.90;999.90;;;20.90;99.90;;;;;;4974536;28;20465;-69
2022/10/10 11:03:47;;;;;;;1999.90;999.90;;;21.10;99.90;;;;;;4974336;28;20437;-69
2022/10/10 11:06:30;;;;;;;1999.90;999.90;;;21.20;99.90;;;;;;4981147;28;20414;-70
2022/10/10 11:09:13;;;;;;;1999.90;999.90;;;21.30;99.90;;;;;;4985887;28;20406;-69
2022/10/10 11:11:57;;;;;;;1999.90;999.90;;;21.40;99.90;;;;;;4978413;28;20418;-68
2022/10/10 11:14:30;;;;;;;1999.90;999.90;;;21.50;99.90;;;;;;4973075;28;20904;-69
2022/10/10 11:17:12;;;;;;;1999.90;999.90;;;21.40;99.90;;;;;;4973887;28;20414;-69
2022/10/10 11:19:55;;;;;;;1999.90;999.90;;;21.40;99.90;;;;;;4974048;28;20952;-68
2022/10/10 11:22:27;;;;;;;1999.90;999.90;;;21.50;99.90;;;;;;4974311;28;20775;-69
2022/10/10 11:25:05;;;;;;;1999.90;999.90;;;21.80;99.90;;;;;;4973995;28;20915;-69
2022/10/10 11:27:49;;;;;;;1999.90;999.90;;;22.20;99.90;;;;;;4973515;28;20472;-69
2022/10/10 11:30:21;;;;;;;1999.90;999.90;;;22.50;99.90;;;;;;4974308;28;20410;-69
2022/10/10 11:33:10;;;;;;;1999.90;999.90;;;22.70;99.90;;;;;;4973932;28;20453;-68
2022/10/10 11:35:45;;;;;;;1999.90;999.90;;;22.60;96.70;;;;;;4974343;28;20405;-69
2022/10/10 11:38:36;;;;;;;1999.90;999.90;;;22.40;99.00;;;;;;4974110;28;20407;-69
2022/10/10 11:41:11;;;;;;;1999.90;999.90;;;22.30;98.80;;;;;;4966866;28;20447;-69
2022/10/10 11:43:50;;;;;;;1999.90;999.90;;;22.20;98.00;;;;;;4975530;28;20429;-69
2022/10/10 11:46:25;;;;;;;1999.90;999.90;;;22.10;98.10;;;;;;4983792;28;20935;-70
2022/10/10 11:49:08;;;;;;;1999.90;999.90;;;22.00;99.60;;;;;;4979235;28;20470;-68
2022/10/10 11:51:43;;;;;;;1999.90;999.90;;;21.80;99.90;;;;;;4973890;28;20413;-68
2022/10/10 11:54:48;;;;;;;1999.90;999.90;;;21.50;99.90;;;;;;4973170;28;20425;-68
2022/10/10 11:57:22;;;;;;;1999.90;999.90;;;21.30;99.90;;;;;;4973256;28;20424;-69
2022/10/10 12:00:14;;;;;;;1999.90;999.90;;;21.00;99.90;;;;;;4973711;28;20524;-69
2022/10/10 12:02:41;;;;;;;1999.90;999.90;;;21.20;99.90;;;;;;4965601;28;20438;-69
2022/10/10 12:05:25;;;;;;;1999.90;999.90;;;21.50;99.90;;;;;;4973557;28;20498;-69
2022/10/10 12:08:11;;;;;;;1999.90;999.90;;;21.90;99.90;;;;;;4973059;28;20791;-69
2022/10/10 12:11:15;;;;;;;1999.90;999.90;;;22.20;98.90;;;;;;4973170;28;20492;-69
2022/10/10 12:13:45;;;;;;;1999.90;999.90;;;22.50;98.80;;;;;;4913589;29;20814;-69
2022/10/10 12:16:19;;;;;;;1999.90;999.90;;;22.80;97.90;;;;;;4962401;28;20419;-70
2022/10/10 12:19:19;;;;;;;1999.90;999.90;;;22.90;95.70;;;;;;4972895;28;20410;-69
2022/10/10 12:22:07;;;;;;;1999.90;999.90;;;23.10;96.60;;;;;;4956590;28;20451;-69
2022/10/10 12:24:57;;;;;;;1999.90;999.90;;;23.30;94.50;;;;;;4972884;28;20407;-69